Airfield :
LOGIN :

Register | Disclaimer

   EN    FR    IT 

 










Legend :    VFR   Marginal VFR   IFR   Intensive IFR   Very Intensive IFR
Visi :
Ceiling :
>= 8 km
>= 3000ft
5 to 8 km
1000 to 3000 ft
1500m to 5 km
500 to 1000 ft
800 to 1500m
200 to 500 ft
< 800m
< 200 ft
Symbols :   Thunderstorms  Fog  Heavy snow  Heavy precipitations  Wind > 20 kt
SIGMETs :     Misc.  Thunderstorms  Icing  Turbulence  Mountain Waves  Volcanic Ashes






- Airport Elevation : 863 ft
- IATA code : ZAZ


LEZG - Zaragoza Aragon

CURRENT METAR :
  • 110430Z 29005KT 260V320 9999 BKN050 BKN070 11/09 Q1012

EXPIRED METARs :
  • 110400Z 30006KT 9999 BKN050 BKN070 12/09 Q1012
  • 110330Z 32003KT 280V350 9999 FEW040 BKN070 11/09 Q1012
  • 110300Z 33003KT 290V030 9999 -RA FEW040 BKN070 12/08 Q1012
  • 110230Z 31005KT 9999 -RA FEW040 BKN060 12/08 Q1012
  • 110200Z 31005KT 230V350 9999 -RA BKN060 13/06 Q1012
  • 110130Z 30008KT 260V340 9999 BKN065 14/06 Q1011

TAF TAF LEZG
Valid from the 11 at 00:00 until the 12 at 00:00 UTC


102300Z 1100/1124 28007KT 9999 SCT040 TX21/1114Z TN11/1106Z
TEMPO 1100/1106 RA
BECMG 1102/1104 30012KT
TEMPO 1104/1117 31015G25KT
TEMPO 1110/1116 31020G30KT
BECMG 1118/1121 24005KT



MET'MAP, your aeronautical weather chart ! - Copyright ORBIFLY December 2007 - Disclaimer

ORBIFLY MET'MAP TEAM :

Programming & Development : Alexandra Zaïnal
Concept & original design : Baudouin d'Aumeries
Assistance for programming : Marc-Olivier Méhu
Technical & hardware support : Manuel Goepfert

Contact : metmap@orbifly.com




SOURCES & CREDITS :

   NOAA